Time;durP1;ratioP1;P1;durP2;ratioP2;P2;SDS_P1;SDS_P2;PMS_P1;PMS_P2;Temp;Humidity;BMP_temperature;BMP_pressure;BME280_temperature;BME280_humidity;BME280_pressure;Samples;Min_cycle;Max_cycle;Signal;HPM_P1;HPM_P2
2022/08/08 00:00:10;;;;;;;2.08;1.88;;;25.30;53.60;;;;;;7687159;22;80424;-73
2022/08/08 00:03:14;;;;;;;2.90;2.10;;;25.30;53.80;;;;;;7688681;22;80146;-73
2022/08/08 00:06:14;;;;;;;4.68;1.80;;;25.30;53.80;;;;;;7688424;22;80088;-73
2022/08/08 00:09:15;;;;;;;4.47;2.03;;;25.30;53.70;;;;;;7688160;22;80207;-73
2022/08/08 00:12:15;;;;;;;6.50;2.25;;;25.30;53.60;;;;;;7687988;22;80336;-73
2022/08/08 00:15:15;;;;;;;3.88;1.73;;;25.30;53.60;;;;;;7688621;22;80416;-72
2022/08/08 00:18:16;;;;;;;2.95;1.48;;;25.30;53.60;;;;;;7688386;22;80326;-72
2022/08/08 00:21:16;;;;;;;3.20;2.33;;;25.20;53.60;;;;;;7689176;22;80424;-72
2022/08/08 00:24:17;;;;;;;3.97;2.05;;;25.20;53.50;;;;;;7688599;22;80109;-71
2022/08/08 00:27:17;;;;;;;5.18;1.90;;;25.20;53.60;;;;;;7688961;22;80706;-70
2022/08/08 00:30:18;;;;;;;2.38;1.65;;;25.20;53.60;;;;;;7686752;22;81310;-70
2022/08/08 00:33:18;;;;;;;2.95;2.00;;;25.20;53.50;;;;;;7686744;22;81483;-72
2022/08/08 00:36:19;;;;;;;5.72;2.22;;;25.20;53.50;;;;;;7688345;22;80278;-72
2022/08/08 00:39:20;;;;;;;1.77;1.60;;;25.20;53.20;;;;;;7688019;22;80183;-71
2022/08/08 00:42:20;;;;;;;4.72;1.90;;;25.20;52.60;;;;;;7687907;22;81178;-71
2022/08/08 00:45:20;;;;;;;3.80;1.70;;;25.20;52.30;;;;;;7688250;22;80282;-72
2022/08/08 00:48:21;;;;;;;2.80;1.52;;;25.20;52.20;;;;;;7688029;22;80952;-71
2022/08/08 00:51:21;;;;;;;3.85;1.75;;;25.20;52.30;;;;;;7686625;22;80389;-71
2022/08/08 00:54:22;;;;;;;3.13;1.88;;;25.20;51.70;;;;;;7686435;22;83100;-72
2022/08/08 00:57:24;;;;;;;5.50;1.90;;;25.20;51.80;;;;;;7686523;22;82099;-72
2022/08/08 01:00:26;;;;;;;2.90;1.42;;;25.20;51.60;;;;;;7686725;22;81791;-72
2022/08/08 01:03:31;;;;;;;3.07;1.67;;;25.20;51.70;;;;;;7686555;22;80490;-72
2022/08/08 01:06:34;;;;;;;3.47;1.52;;;25.20;51.80;;;;;;7685692;22;81500;-71
2022/08/08 01:09:34;;;;;;;2.72;1.55;;;25.20;52.00;;;;;;7686178;22;83771;-71
2022/08/08 01:12:42;;;;;;;1.90;1.70;;;25.20;51.90;;;;;;7686740;22;83329;-71
2022/08/08 01:15:44;;;;;;;2.47;1.42;;;25.20;51.80;;;;;;7686263;22;82113;-72
2022/08/08 01:18:44;;;;;;;3.33;1.42;;;25.30;52.20;;;;;;7685534;22;83228;-72
2022/08/08 01:21:46;;;;;;;5.32;1.58;;;25.20;52.20;;;;;;7686739;22;82518;-72
2022/08/08 01:24:47;;;;;;;2.33;1.42;;;25.20;52.20;;;;;;7660943;22;82470;-70
2022/08/08 01:27:48;;;;;;;2.53;1.73;;;25.20;52.20;;;;;;7686218;22;81613;-71
2022/08/08 01:30:52;;;;;;;3.80;1.83;;;25.20;52.20;;;;;;7685816;22;82865;-71
2022/08/08 01:33:53;;;;;;;2.28;1.50;;;25.20;52.30;;;;;;7686231;22;83201;-70
2022/08/08 01:36:54;;;;;;;2.35;1.60;;;25.20;52.40;;;;;;7685849;22;81250;-71
2022/08/08 01:39:56;;;;;;;2.17;1.48;;;25.10;52.40;;;;;;7688058;22;81590;-71
2022/08/08 01:42:57;;;;;;;1.83;1.30;;;25.10;52.60;;;;;;7686139;22;81853;-72
2022/08/08 01:45:58;;;;;;;2.55;1.45;;;25.10;52.50;;;;;;7686675;22;81750;-73
2022/08/08 01:49:03;;;;;;;2.17;1.60;;;25.10;52.60;;;;;;7686211;22;81586;-72
2022/08/08 01:52:06;;;;;;;2.05;1.65;;;25.10;52.50;;;;;;7660466;22;82506;-71
2022/08/08 01:55:10;;;;;;;1.90;1.70;;;25.10;52.60;;;;;;7686017;22;81580;-71
2022/08/08 01:58:12;;;;;;;3.92;1.80;;;25.10;52.60;;;;;;7686288;22;81582;-72
2022/08/08 02:01:13;;;;;;;1.70;1.60;;;25.10;52.60;;;;;;7685369;22;82990;-72
2022/08/08 02:04:18;;;;;;;2.80;1.60;;;25.10;52.50;;;;;;7686309;22;82684;-72
2022/08/08 02:07:19;;;;;;;4.28;1.50;;;25.10;52.50;;;;;;7685337;22;82597;-71
2022/08/08 02:10:20;;;;;;;1.90;1.48;;;25.10;52.40;;;;;;7660635;22;82124;-72
2022/08/08 02:13:21;;;;;;;1.85;1.55;;;25.10;52.40;;;;;;7685378;22;83011;-72
2022/08/08 02:16:22;;;;;;;2.90;1.75;;;25.10;52.40;;;;;;7685613;22;82700;-73
2022/08/08 02:19:22;;;;;;;2.17;1.63;;;25.10;52.40;;;;;;7660976;22;81944;-72
2022/08/08 02:22:32;;;;;;;1.90;1.63;;;25.10;52.40;;;;;;7685691;22;83068;-73
2022/08/08 02:25:36;;;;;;;7.35;1.95;;;25.10;52.20;;;;;;7685253;22;82935;-74
2022/08/08 02:28:36;;;;;;;4.13;1.77;;;25.10;52.20;;;;;;7685481;22;82819;-73
2022/08/08 02:31:40;;;;;;;1.67;1.45;;;25.10;52.10;;;;;;7685249;22;82954;-73
2022/08/08 02:34:40;;;;;;;2.80;1.60;;;25.10;52.10;;;;;;7685586;22;82103;-71
2022/08/08 02:37:41;;;;;;;3.88;1.73;;;25.10;52.00;;;;;;7685677;22;83236;-72
2022/08/08 02:40:42;;;;;;;2.33;1.52;;;25.10;52.00;;;;;;7686135;22;82486;-72
2022/08/08 02:43:43;;;;;;;2.58;1.83;;;25.10;52.00;;;;;;7686931;22;81188;-73
2022/08/08 02:46:43;;;;;;;1.67;1.45;;;25.10;51.90;;;;;;7688884;22;79996;-71
2022/08/08 02:49:44;;;;;;;3.50;1.50;;;25.00;52.40;;;;;;7687183;22;81616;-72
2022/08/08 02:52:45;;;;;;;1.80;1.48;;;25.10;51.60;;;;;;7687089;22;83172;-71
2022/08/08 02:55:46;;;;;;;6.18;1.83;;;25.10;51.60;;;;;;7687223;22;81373;-71
2022/08/08 02:58:47;;;;;;;2.50;1.60;;;25.10;51.50;;;;;;7689040;22;80204;-72
2022/08/08 03:01:47;;;;;;;3.70;1.70;;;25.00;51.40;;;;;;7686895;22;82149;-72
2022/08/08 03:04:48;;;;;;;2.30;1.40;;;25.00;51.30;;;;;;7687425;22;82967;-71
2022/08/08 03:07:49;;;;;;;2.70;1.60;;;25.00;51.20;;;;;;7686264;22;81522;-70
2022/08/08 03:10:50;;;;;;;1.60;1.30;;;25.00;51.10;;;;;;7686291;22;82966;-71
2022/08/08 03:13:50;;;;;;;5.47;2.08;;;25.00;51.10;;;;;;7686431;22;82878;-71
2022/08/08 03:16:51;;;;;;;2.40;1.60;;;25.00;51.10;;;;;;7686981;22;83107;-72
2022/08/08 03:19:53;;;;;;;2.15;1.55;;;25.00;51.10;;;;;;7687118;22;82278;-72
2022/08/08 03:22:55;;;;;;;2.55;1.70;;;25.00;51.10;;;;;;7686454;22;82083;-72
2022/08/08 03:25:56;;;;;;;3.15;1.90;;;25.00;51.00;;;;;;7686704;22;83594;-72
2022/08/08 03:28:57;;;;;;;5.95;1.95;;;25.00;51.20;;;;;;7686559;22;82556;-72
2022/08/08 03:35:17;;;;;;;7.38;2.22;;;25.00;51.30;;;;;;7688776;22;80336;-72
2022/08/08 03:38:17;;;;;;;2.55;1.88;;;25.00;51.20;;;;;;7688016;22;80373;-69
2022/08/08 03:41:19;;;;;;;3.25;2.13;;;25.00;51.10;;;;;;7661726;22;83083;-70
2022/08/08 03:44:19;;;;;;;2.80;1.65;;;25.00;51.00;;;;;;7688604;22;80393;-70
2022/08/08 03:47:20;;;;;;;4.10;2.05;;;25.00;51.20;;;;;;7660758;22;80383;-71
2022/08/08 03:50:23;;;;;;;4.38;1.80;;;25.00;51.50;;;;;;7687993;22;80708;-71
2022/08/08 03:53:24;;;;;;;3.00;1.60;;;25.10;51.50;;;;;;7687840;22;80429;-71
2022/08/08 03:56:24;;;;;;;3.92;1.67;;;25.10;51.30;;;;;;7689655;22;82928;-70
2022/08/08 03:59:25;;;;;;;4.55;1.77;;;25.00;51.90;;;;;;7689865;22;83416;-70
2022/08/08 04:02:26;;;;;;;2.00;1.63;;;25.10;51.30;;;;;;7690563;22;82938;-71
2022/08/08 04:05:26;;;;;;;1.40;1.30;;;25.10;51.40;;;;;;7694803;22;84100;-70
2022/08/08 04:08:27;;;;;;;2.50;1.23;;;25.00;51.40;;;;;;7687858;22;83301;-70
2022/08/08 04:11:28;;;;;;;5.30;1.52;;;25.00;51.50;;;;;;7687612;22;81836;-70
2022/08/08 04:14:28;;;;;;;3.70;1.73;;;25.00;51.50;;;;;;7688660;22;80057;-70
2022/08/08 04:17:29;;;;;;;3.72;1.80;;;25.00;51.50;;;;;;7686054;22;83556;-70
2022/08/08 04:20:30;;;;;;;3.17;1.70;;;25.00;51.30;;;;;;7686422;22;82906;-71
2022/08/08 04:23:31;;;;;;;3.38;1.75;;;25.00;51.20;;;;;;7686243;22;83471;-72
2022/08/08 04:26:32;;;;;;;6.78;1.73;;;25.00;51.20;;;;;;7686691;22;83565;-70
2022/08/08 04:29:33;;;;;;;5.22;2.10;;;25.00;51.80;;;;;;7685955;22;83265;-69
2022/08/08 04:32:34;;;;;;;3.47;2.10;;;25.00;51.40;;;;;;7686341;22;83519;-74
2022/08/08 04:35:36;;;;;;;2.88;1.48;;;25.00;51.30;;;;;;7686114;22;82216;-70
2022/08/08 04:38:37;;;;;;;2.08;1.40;;;25.10;51.50;;;;;;7688025;22;80411;-65
2022/08/08 04:41:38;;;;;;;3.38;1.65;;;25.00;51.50;;;;;;7686612;22;82857;-67
2022/08/08 04:44:38;;;;;;;2.58;1.67;;;25.10;51.40;;;;;;7687634;22;81886;-67
2022/08/08 04:47:39;;;;;;;18.98;6.28;;;25.10;51.50;;;;;;7685421;22;80351;-67
2022/08/08 04:50:40;;;;;;;18.50;7.93;;;25.10;51.60;;;;;;7685735;22;80650;-66
2022/08/08 04:53:51;;;;;;;45.90;20.92;;;25.20;51.70;;;;;;7685518;22;83130;-66
2022/08/08 04:56:52;;;;;;;136.70;57.95;;;25.30;51.80;;;;;;7681454;22;83331;-67
2022/08/08 04:59:53;;;;;;;192.60;81.07;;;25.20;51.90;;;;;;7680760;22;85109;-65
2022/08/08 05:02:55;;;;;;;201.60;78.38;;;25.30;52.70;;;;;;7682584;22;83308;-67
2022/08/08 05:05:56;;;;;;;198.77;78.78;;;25.30;52.10;;;;;;7680315;22;89866;-68
2022/08/08 05:08:57;;;;;;;156.23;66.57;;;25.30;52.20;;;;;;7681708;22;85295;-67
2022/08/08 05:11:58;;;;;;;140.35;60.65;;;25.30;52.30;;;;;;7680857;22;85388;-67
2022/08/08 05:15:03;;;;;;;141.90;55.93;;;25.30;52.30;;;;;;7680845;22;85310;-67
2022/08/08 05:18:04;;;;;;;126.55;54.78;;;25.30;52.30;;;;;;7681846;22;83038;-67
2022/08/08 05:21:04;;;;;;;111.57;48.65;;;25.30;52.40;;;;;;7680184;22;85557;-68
2022/08/08 05:24:05;;;;;;;92.90;42.10;;;25.30;52.50;;;;;;7679299;22;83920;-68
2022/08/08 05:27:06;;;;;;;94.15;40.83;;;25.30;52.90;;;;;;7680285;22;86175;-66
2022/08/08 05:30:12;;;;;;;83.18;36.00;;;25.30;53.00;;;;;;7681348;22;85888;-68
2022/08/08 05:33:18;;;;;;;83.03;33.47;;;25.30;53.00;;;;;;7681592;22;85260;-67
2022/08/08 05:36:19;;;;;;;73.03;31.77;;;25.30;53.10;;;;;;7681546;22;85391;-66
2022/08/08 05:39:20;;;;;;;66.00;28.75;;;25.30;53.00;;;;;;7683676;22;83263;-66
2022/08/08 05:42:20;;;;;;;64.45;27.48;;;25.30;53.30;;;;;;7680765;22;85399;-66
2022/08/08 05:45:21;;;;;;;57.22;24.55;;;25.40;53.60;;;;;;7681862;22;86095;-67
2022/08/08 05:48:22;;;;;;;55.50;21.83;;;25.40;53.90;;;;;;7681555;22;85525;-67
2022/08/08 05:51:22;;;;;;;53.53;22.30;;;25.40;53.90;;;;;;7682938;22;83124;-66
2022/08/08 05:54:27;;;;;;;35.63;16.17;;;25.50;54.00;;;;;;7680211;22;85764;-70
2022/08/08 05:57:28;;;;;;;33.20;14.52;;;25.40;53.30;;;;;;7680527;22;86495;-77
2022/08/08 06:00:29;;;;;;;18.40;10.15;;;25.40;53.30;;;;;;7681074;22;85654;-74
2022/08/08 06:03:33;;;;;;;20.48;10.07;;;25.30;52.40;;;;;;7656184;22;84341;-66
2022/08/08 06:06:34;;;;;;;20.58;9.10;;;25.30;52.60;;;;;;7680079;22;84754;-71
2022/08/08 06:09:36;;;;;;;24.52;8.48;;;25.20;52.70;;;;;;7685804;22;85938;-71
2022/08/08 06:12:37;;;;;;;22.10;8.40;;;25.20;52.90;;;;;;7685389;22;82738;-71
2022/08/08 06:15:38;;;;;;;19.23;6.75;;;25.20;53.00;;;;;;7685624;22;82956;-69
2022/08/08 06:18:39;;;;;;;19.20;7.53;;;25.20;53.00;;;;;;7688438;22;80302;-71
2022/08/08 06:21:40;;;;;;;17.80;5.28;;;25.10;53.10;;;;;;7682339;22;82120;-70
2022/08/08 06:24:41;;;;;;;12.27;5.03;;;25.10;53.20;;;;;;7681871;22;82189;-69
2022/08/08 06:27:42;;;;;;;10.65;3.78;;;25.00;53.00;;;;;;7682454;22;81795;-70
2022/08/08 06:30:42;;;;;;;27.52;4.00;;;25.00;53.10;;;;;;7685096;22;80896;-70
2022/08/08 06:33:43;;;;;;;8.15;3.70;;;25.00;53.20;;;;;;7682264;22;81504;-70
2022/08/08 06:36:43;;;;;;;7.30;3.75;;;25.00;53.00;;;;;;7685714;22;80788;-69
2022/08/08 06:39:44;;;;;;;11.02;3.25;;;25.00;53.20;;;;;;7686160;22;81958;-68
2022/08/08 06:42:45;;;;;;;4.28;2.60;;;24.90;53.40;;;;;;7684420;22;83624;-69
2022/08/08 06:45:46;;;;;;;4.55;2.72;;;24.90;53.40;;;;;;7685003;22;82624;-69
2022/08/08 06:48:46;;;;;;;7.70;2.70;;;24.90;53.60;;;;;;7685808;22;83054;-69
2022/08/08 06:51:47;;;;;;;14.00;2.92;;;24.90;53.50;;;;;;7685274;22;82890;-69
2022/08/08 06:54:50;;;;;;;4.50;2.28;;;24.90;53.30;;;;;;7685593;22;83330;-69
2022/08/08 06:57:51;;;;;;;6.35;2.40;;;24.90;53.00;;;;;;7685430;22;83349;-70
2022/08/08 07:00:51;;;;;;;5.68;1.95;;;24.80;53.00;;;;;;7686579;22;83615;-71
2022/08/08 07:03:53;;;;;;;11.77;2.47;;;24.80;53.20;;;;;;7685950;22;83442;-71
2022/08/08 07:06:54;;;;;;;4.35;2.20;;;24.80;53.10;;;;;;7686332;22;83201;-69
2022/08/08 07:09:55;;;;;;;3.35;1.98;;;24.80;52.70;;;;;;7684006;22;83464;-70
2022/08/08 07:12:55;;;;;;;3.50;1.70;;;24.80;52.80;;;;;;7685252;22;83174;-71
2022/08/08 07:16:07;;;;;;;3.72;1.85;;;24.70;52.80;;;;;;7685594;22;83085;-71
2022/08/08 07:19:10;;;;;;;2.60;1.80;;;24.80;53.00;;;;;;7686609;22;82695;-72
2022/08/08 07:22:14;;;;;;;3.00;1.70;;;24.80;53.00;;;;;;7686178;22;83373;-74
2022/08/08 07:25:15;;;;;;;4.03;1.65;;;24.80;53.10;;;;;;7660658;22;83250;-74
2022/08/08 07:28:18;;;;;;;4.13;1.75;;;24.80;53.20;;;;;;7685133;22;81804;-74
2022/08/08 07:31:19;;;;;;;5.07;1.70;;;24.80;53.20;;;;;;7685974;22;83247;-72
2022/08/08 07:34:20;;;;;;;7.65;2.63;;;24.80;53.40;;;;;;7685784;22;82813;-72
2022/08/08 07:37:22;;;;;;;3.88;2.05;;;24.80;53.60;;;;;;7685859;22;83351;-72
2022/08/08 07:40:23;;;;;;;10.02;3.85;;;24.90;53.90;;;;;;7685034;22;83331;-70
2022/08/08 07:43:24;;;;;;;18.40;8.75;;;24.90;54.20;;;;;;7660053;22;83213;-72
2022/08/08 07:46:27;;;;;;;13.23;6.75;;;24.80;53.30;;;;;;7684492;22;82980;-70
2022/08/08 07:49:31;;;;;;;10.77;5.60;;;24.80;52.50;;;;;;7658295;22;82951;-77
2022/08/08 07:52:32;;;;;;;12.20;3.85;;;24.80;52.60;;;;;;7681040;22;82661;-70
2022/08/08 07:55:33;;;;;;;11.10;3.55;;;24.80;52.90;;;;;;7684149;22;82198;-67
2022/08/08 07:58:35;;;;;;;7.47;2.60;;;24.70;52.70;;;;;;7685449;22;83332;-72
2022/08/08 08:01:36;;;;;;;4.65;2.10;;;24.70;52.30;;;;;;7685291;22;83259;-69
2022/08/08 08:04:36;;;;;;;2.30;1.80;;;24.70;52.30;;;;;;7685259;22;81415;-69
2022/08/08 08:07:37;;;;;;;2.75;1.92;;;24.70;52.00;;;;;;7684815;22;83134;-69
2022/08/08 08:10:38;;;;;;;4.57;1.77;;;24.60;51.20;;;;;;7685022;22;83198;-68
2022/08/08 08:13:39;;;;;;;2.67;1.42;;;24.60;51.20;;;;;;7685120;22;82910;-69
2022/08/08 08:16:39;;;;;;;5.03;2.35;;;24.60;51.10;;;;;;7685208;22;80608;-69
2022/08/08 08:19:40;;;;;;;6.22;2.03;;;24.50;51.00;;;;;;7685402;22;82493;-70
2022/08/08 08:22:40;;;;;;;4.00;1.75;;;24.50;51.80;;;;;;7686803;22;80450;-69
2022/08/08 08:25:41;;;;;;;3.38;1.88;;;24.50;51.60;;;;;;7684978;22;82099;-71
2022/08/08 08:28:41;;;;;;;3.03;1.33;;;24.50;51.50;;;;;;7685130;22;83022;-71
2022/08/08 08:31:43;;;;;;;3.58;1.50;;;24.60;51.70;;;;;;7685286;22;83224;-70
2022/08/08 08:34:45;;;;;;;3.88;1.85;;;24.60;52.10;;;;;;7684830;22;83252;-75
2022/08/08 08:37:46;;;;;;;15.13;2.28;;;24.60;51.80;;;;;;7684323;22;83289;-70
2022/08/08 08:40:46;;;;;;;3.47;1.65;;;24.60;51.80;;;;;;7685155;22;82611;-69
2022/08/08 08:43:47;;;;;;;4.53;1.80;;;24.50;52.10;;;;;;7684819;22;82438;-69
2022/08/08 08:46:48;;;;;;;9.20;1.60;;;24.60;52.60;;;;;;7684732;22;83028;-68
2022/08/08 08:49:49;;;;;;;4.60;1.92;;;24.50;52.90;;;;;;7686930;22;80580;-68
2022/08/08 08:52:50;;;;;;;4.70;1.55;;;24.60;53.40;;;;;;7684401;22;83267;-74
2022/08/08 08:55:50;;;;;;;3.47;1.40;;;24.60;53.00;;;;;;7684183;22;82605;-73
2022/08/08 08:58:51;;;;;;;7.85;1.42;;;24.60;53.10;;;;;;7685433;22;83215;-72
2022/08/08 09:01:56;;;;;;;1.85;1.33;;;24.70;52.90;;;;;;7660264;22;83644;-73
2022/08/08 09:05:02;;;;;;;4.80;1.60;;;24.80;53.30;;;;;;7684316;22;82935;-71
2022/08/08 09:08:05;;;;;;;4.65;1.98;;;24.70;52.80;;;;;;7684623;22;82821;-78
2022/08/08 09:11:06;;;;;;;8.57;2.03;;;24.50;53.00;;;;;;7684619;22;83128;-69
2022/08/08 09:14:06;;;;;;;4.18;1.77;;;24.60;53.80;;;;;;7683739;22;81229;-69
2022/08/08 09:17:07;;;;;;;3.88;1.52;;;24.70;53.30;;;;;;7686581;22;80490;-69
2022/08/08 09:20:07;;;;;;;3.75;1.95;;;24.70;52.10;;;;;;7686861;22;81082;-69
2022/08/08 09:23:08;;;;;;;6.30;1.92;;;24.80;52.10;;;;;;7684819;22;81712;-69
2022/08/08 09:26:09;;;;;;;2.25;1.52;;;24.80;51.70;;;;;;7685184;22;83158;-70
2022/08/08 09:29:10;;;;;;;7.05;1.88;;;24.80;51.40;;;;;;7684303;22;83208;-68
2022/08/08 09:32:11;;;;;;;3.03;1.60;;;24.80;51.40;;;;;;7684527;22;83059;-69
2022/08/08 09:35:18;;;;;;;3.90;1.63;;;24.70;51.20;;;;;;7683887;22;81803;-69
2022/08/08 09:38:18;;;;;;;2.38;1.73;;;24.70;51.10;;;;;;7684004;22;80444;-69
2022/08/08 09:41:19;;;;;;;6.25;1.63;;;24.70;51.20;;;;;;7684757;22;83326;-71
2022/08/08 09:44:19;;;;;;;4.05;1.92;;;24.80;51.20;;;;;;7684669;22;82820;-70
2022/08/08 09:47:22;;;;;;;6.95;1.65;;;24.70;50.70;;;;;;7686178;22;80803;-70
2022/08/08 09:50:25;;;;;;;6.28;1.27;;;24.70;50.60;;;;;;7686070;22;80516;-70
2022/08/08 09:53:26;;;;;;;3.42;1.50;;;24.70;50.20;;;;;;7687411;22;80657;-68
2022/08/08 09:56:26;;;;;;;3.08;1.60;;;24.70;49.80;;;;;;7685085;22;87340;-69
2022/08/08 09:59:27;;;;;;;2.15;1.40;;;24.60;50.30;;;;;;7686931;22;80734;-70
2022/08/08 10:02:28;;;;;;;5.70;1.25;;;24.70;50.40;;;;;;7686573;22;80470;-70
2022/08/08 10:05:28;;;;;;;4.00;1.40;;;24.80;50.20;;;;;;7685995;22;80671;-71
2022/08/08 10:08:29;;;;;;;3.85;1.25;;;24.80;50.30;;;;;;7683898;22;81536;-69
2022/08/08 10:11:29;;;;;;;4.82;1.70;;;24.90;49.70;;;;;;7684024;22;83462;-69
2022/08/08 10:14:30;;;;;;;9.48;1.52;;;24.80;49.50;;;;;;7684760;22;80417;-70
2022/08/08 10:17:31;;;;;;;6.43;1.38;;;24.70;49.10;;;;;;7686104;22;80417;-70
2022/08/08 10:20:33;;;;;;;2.83;1.30;;;24.70;49.60;;;;;;7686154;22;80275;-70
2022/08/08 10:23:34;;;;;;;2.55;1.15;;;24.70;49.10;;;;;;7685307;22;80301;-69
2022/08/08 10:26:34;;;;;;;3.60;1.30;;;24.70;49.00;;;;;;7686052;22;80440;-69
2022/08/08 10:29:35;;;;;;;5.20;1.58;;;24.70;49.20;;;;;;7685669;22;80841;-69
2022/08/08 10:32:35;;;;;;;2.97;1.65;;;24.70;49.10;;;;;;7683325;22;83507;-69
2022/08/08 10:35:36;;;;;;;1.17;0.90;;;24.70;49.10;;;;;;7685557;22;80256;-70
2022/08/08 10:38:36;;;;;;;2.58;1.20;;;24.80;49.70;;;;;;7683653;22;80592;-69
2022/08/08 10:41:37;;;;;;;1.88;1.13;;;24.90;49.90;;;;;;7685663;22;80832;-70
2022/08/08 10:44:37;;;;;;;3.33;1.10;;;24.90;49.80;;;;;;7685987;22;80383;-68
2022/08/08 10:47:38;;;;;;;2.38;1.33;;;24.90;48.80;;;;;;7685108;22;80716;-69
2022/08/08 10:50:38;;;;;;;5.03;1.00;;;24.90;48.50;;;;;;7685345;22;80703;-69
2022/08/08 10:53:40;;;;;;;6.13;1.55;;;24.90;47.20;;;;;;7685312;22;80846;-70
2022/08/08 10:56:41;;;;;;;1.45;1.30;;;24.90;46.90;;;;;;7685306;22;80135;-70
2022/08/08 10:59:44;;;;;;;3.90;1.30;;;24.90;47.60;;;;;;7685807;22;80528;-70
2022/08/08 11:02:44;;;;;;;5.55;1.30;;;25.00;48.10;;;;;;7686270;22;80409;-69
2022/08/08 11:05:45;;;;;;;5.57;1.52;;;25.10;48.10;;;;;;7685266;22;80245;-70
2022/08/08 11:08:45;;;;;;;1.80;1.20;;;25.10;47.90;;;;;;7686373;22;80321;-70
2022/08/08 11:11:46;;;;;;;2.08;1.13;;;25.10;47.60;;;;;;7684780;22;83452;-69
2022/08/08 11:14:47;;;;;;;2.90;1.35;;;25.20;47.60;;;;;;7686638;22;84000;-70
2022/08/08 11:17:47;;;;;;;9.68;1.20;;;25.20;47.50;;;;;;7687091;22;82192;-69
2022/08/08 11:20:48;;;;;;;3.55;2.00;;;25.30;47.60;;;;;;7687291;22;79994;-69
2022/08/08 11:23:48;;;;;;;1.95;1.23;;;25.30;47.50;;;;;;7687081;22;80593;-71
2022/08/08 11:26:49;;;;;;;4.20;1.80;;;25.20;46.90;;;;;;7687375;22;80110;-69
2022/08/08 11:29:49;;;;;;;4.65;1.40;;;25.30;46.70;;;;;;7687595;22;80463;-69
2022/08/08 11:32:49;;;;;;;4.53;1.23;;;25.10;46.80;;;;;;7687031;22;81411;-69
2022/08/08 11:35:50;;;;;;;2.72;1.10;;;25.30;47.20;;;;;;7685485;22;80644;-70
2022/08/08 11:38:50;;;;;;;2.72;1.23;;;25.30;47.10;;;;;;7686929;22;82108;-69
2022/08/08 11:41:51;;;;;;;2.25;1.10;;;25.40;47.60;;;;;;7686830;22;87022;-69
2022/08/08 11:44:51;;;;;;;2.50;1.30;;;25.40;48.10;;;;;;7687532;22;80699;-68
2022/08/08 11:47:52;;;;;;;6.53;1.38;;;25.40;47.30;;;;;;7686822;22;80416;-68
2022/08/08 11:50:52;;;;;;;1.73;1.20;;;25.30;48.00;;;;;;7685013;22;81224;-69
2022/08/08 11:53:53;;;;;;;1.75;1.13;;;25.40;48.10;;;;;;7685433;22;80838;-69
2022/08/08 11:56:53;;;;;;;7.18;2.08;;;25.40;48.10;;;;;;7686926;22;80299;-68
2022/08/08 11:59:54;;;;;;;3.15;1.35;;;25.40;48.40;;;;;;7686331;22;80172;-68
2022/08/08 12:02:56;;;;;;;1.85;1.50;;;25.50;48.30;;;;;;7687289;22;81031;-70
2022/08/08 12:05:59;;;;;;;2.13;1.38;;;25.50;48.50;;;;;;7685326;22;81278;-68
2022/08/08 12:09:00;;;;;;;4.38;1.75;;;25.50;48.00;;;;;;7687359;22;80452;-69
2022/08/08 12:12:00;;;;;;;11.77;1.70;;;25.50;47.80;;;;;;7686275;22;80689;-68
2022/08/08 12:15:01;;;;;;;4.28;1.48;;;25.50;47.80;;;;;;7685293;22;80724;-69
2022/08/08 12:18:01;;;;;;;5.28;1.40;;;25.50;47.90;;;;;;7686217;22;80370;-69
2022/08/08 12:21:02;;;;;;;1.65;1.27;;;25.50;47.70;;;;;;7686875;22;80401;-70
2022/08/08 12:24:02;;;;;;;7.22;1.92;;;25.40;47.90;;;;;;7684585;22;81433;-69
2022/08/08 12:27:03;;;;;;;2.97;1.48;;;25.40;47.70;;;;;;7686251;22;80691;-68
2022/08/08 12:30:03;;;;;;;2.08;1.60;;;25.30;46.90;;;;;;7685019;22;80335;-69
2022/08/08 12:33:04;;;;;;;3.33;1.38;;;25.30;47.20;;;;;;7686983;22;80311;-69
2022/08/08 12:36:04;;;;;;;1.77;1.30;;;25.30;47.30;;;;;;7687171;22;81905;-68
2022/08/08 12:39:05;;;;;;;4.75;1.25;;;25.10;47.40;;;;;;7687112;22;80274;-68
2022/08/08 12:42:05;;;;;;;3.65;2.28;;;25.10;48.20;;;;;;7684939;22;81135;-68
2022/08/08 12:45:06;;;;;;;3.00;1.55;;;25.10;48.10;;;;;;7686614;22;80414;-69
2022/08/08 12:48:07;;;;;;;3.97;1.75;;;25.20;47.80;;;;;;7685582;22;83580;-69
2022/08/08 12:51:07;;;;;;;4.25;2.95;;;25.30;47.80;;;;;;7687354;22;80823;-69
2022/08/08 12:54:08;;;;;;;3.60;2.05;;;25.30;47.20;;;;;;7686554;22;80236;-69
2022/08/08 12:57:09;;;;;;;6.50;1.70;;;25.20;47.20;;;;;;7685806;22;80740;-69
2022/08/08 13:00:09;;;;;;;3.08;1.80;;;25.30;46.70;;;;;;7687052;22;80114;-69
2022/08/08 13:03:10;;;;;;;4.90;1.73;;;25.30;46.30;;;;;;7684591;22;82435;-70
2022/08/08 13:06:10;;;;;;;5.18;1.75;;;25.30;45.70;;;;;;7686136;22;80380;-69
2022/08/08 13:09:11;;;;;;;1.80;1.10;;;25.20;45.40;;;;;;7685926;22;80612;-67
2022/08/08 13:12:11;;;;;;;3.35;1.60;;;25.20;45.90;;;;;;7685843;22;82928;-69
2022/08/08 13:15:12;;;;;;;2.03;1.08;;;25.30;45.50;;;;;;7686097;22;80518;-69
2022/08/08 13:18:12;;;;;;;1.10;1.00;;;25.20;45.00;;;;;;7686526;22;80793;-68
2022/08/08 13:21:13;;;;;;;6.80;1.10;;;25.20;44.50;;;;;;7686792;22;81001;-68
2022/08/08 13:24:14;;;;;;;2.15;1.30;;;25.20;44.40;;;;;;7686337;22;80254;-68
2022/08/08 13:27:14;;;;;;;4.32;1.67;;;25.20;44.50;;;;;;7684570;22;80151;-69
2022/08/08 13:30:15;;;;;;;3.85;1.90;;;25.20;44.60;;;;;;7686377;22;80398;-68
2022/08/08 13:33:15;;;;;;;4.38;2.15;;;25.30;45.20;;;;;;7683955;22;83045;-68
2022/08/08 13:36:16;;;;;;;4.25;1.73;;;25.20;45.90;;;;;;7686248;22;80095;-68
2022/08/08 13:39:16;;;;;;;5.28;1.42;;;25.20;45.40;;;;;;7685979;22;82049;-69
2022/08/08 13:42:17;;;;;;;1.42;1.30;;;25.20;45.80;;;;;;7686268;22;80367;-70
2022/08/08 13:45:17;;;;;;;2.15;1.15;;;25.20;45.50;;;;;;7686301;22;80739;-69
2022/08/08 13:48:18;;;;;;;3.72;1.70;;;25.20;44.80;;;;;;7684960;22;81467;-70
2022/08/08 13:51:18;;;;;;;2.50;1.00;;;25.20;44.50;;;;;;7686044;22;80389;-69
2022/08/08 13:54:19;;;;;;;2.58;1.42;;;25.20;44.70;;;;;;7685517;22;80321;-69
2022/08/08 13:57:19;;;;;;;3.40;1.40;;;25.10;45.40;;;;;;7686134;22;80196;-68
2022/08/08 14:00:20;;;;;;;2.65;1.30;;;25.10;44.60;;;;;;7686015;22;80430;-69
2022/08/08 14:03:20;;;;;;;2.72;1.23;;;25.20;44.30;;;;;;7685871;22;81284;-69
2022/08/08 14:06:21;;;;;;;2.78;1.10;;;25.20;44.10;;;;;;7685767;22;80782;-69
2022/08/08 14:09:21;;;;;;;2.03;1.10;;;25.20;43.90;;;;;;7686074;22;80612;-68
2022/08/08 14:12:22;;;;;;;2.45;1.23;;;25.20;43.90;;;;;;7684890;22;80738;-68
2022/08/08 14:15:22;;;;;;;1.83;1.10;;;25.20;45.10;;;;;;7685718;22;80472;-68
2022/08/08 14:18:23;;;;;;;2.75;2.05;;;25.20;44.40;;;;;;7685566;22;80226;-69
2022/08/08 14:21:23;;;;;;;2.22;1.30;;;25.30;44.90;;;;;;7685792;22;80302;-68
2022/08/08 14:24:24;;;;;;;1.65;1.20;;;25.10;45.00;;;;;;7685569;22;80299;-70
2022/08/08 14:27:25;;;;;;;2.78;1.30;;;25.20;45.20;;;;;;7685185;22;80362;-69
2022/08/08 14:30:25;;;;;;;3.55;1.10;;;25.30;45.40;;;;;;7685122;22;80289;-68
2022/08/08 14:33:26;;;;;;;3.67;1.58;;;25.30;46.00;;;;;;7685447;22;80308;-69
2022/08/08 14:36:26;;;;;;;4.45;1.40;;;25.30;45.80;;;;;;7686098;22;80622;-69
2022/08/08 14:39:27;;;;;;;2.38;1.40;;;25.20;45.20;;;;;;7686826;22;80395;-70
2022/08/08 14:42:28;;;;;;;3.50;1.48;;;25.20;45.40;;;;;;7685519;22;83326;-70
2022/08/08 14:45:28;;;;;;;2.88;1.35;;;25.30;46.00;;;;;;7686930;22;80308;-69
2022/08/08 14:48:29;;;;;;;3.03;1.30;;;25.40;46.00;;;;;;7687536;22;80356;-69
2022/08/08 14:51:29;;;;;;;2.45;1.20;;;25.30;46.20;;;;;;7686924;22;80150;-69
2022/08/08 14:54:30;;;;;;;2.78;1.25;;;25.30;46.00;;;;;;7686817;22;80518;-69
2022/08/08 14:57:30;;;;;;;1.42;1.10;;;25.20;46.30;;;;;;7687497;22;79977;-71
2022/08/08 15:00:31;;;;;;;2.50;1.17;;;25.20;46.10;;;;;;7687444;22;80196;-69
2022/08/08 15:03:31;;;;;;;2.63;1.13;;;25.20;46.60;;;;;;7687439;22;80741;-69
2022/08/08 15:06:32;;;;;;;1.75;1.10;;;25.20;46.80;;;;;;7686422;22;80244;-68
2022/08/08 15:09:32;;;;;;;1.83;1.38;;;25.30;46.50;;;;;;7687530;22;80589;-68
2022/08/08 15:12:33;;;;;;;4.32;1.20;;;25.30;46.90;;;;;;7686691;22;80529;-67
2022/08/08 15:15:33;;;;;;;2.28;1.40;;;25.30;47.20;;;;;;7687210;22;80287;-67
2022/08/08 15:18:34;;;;;;;2.40;1.30;;;25.30;47.10;;;;;;7686771;22;80713;-69
2022/08/08 15:21:34;;;;;;;5.00;1.85;;;25.20;47.30;;;;;;7687184;22;80319;-69
2022/08/08 15:24:35;;;;;;;9.23;1.40;;;25.20;47.90;;;;;;7687174;22;80405;-67
2022/08/08 15:27:35;;;;;;;43.13;17.20;;;25.20;47.90;;;;;;7686804;22;80857;-67
2022/08/08 15:30:36;;;;;;;102.18;44.25;;;25.20;48.30;;;;;;7681387;22;82837;-67
2022/08/08 15:33:37;;;;;;;110.50;50.35;;;25.30;48.50;;;;;;7681989;22;83179;-66
2022/08/08 15:36:38;;;;;;;86.07;34.45;;;25.30;47.90;;;;;;7683395;22;83151;-67
2022/08/08 15:39:39;;;;;;;58.67;25.67;;;25.30;48.10;;;;;;7683901;22;83344;-67